Time;durP1;ratioP1;P1;durP2;ratioP2;P2;SDS_P1;SDS_P2;PMS_P1;PMS_P2;Temp;Humidity;BMP_temperature;BMP_pressure;BME280_temperature;BME280_humidity;BME280_pressure;Samples;Min_cycle;Max_cycle;Signal;HPM_P1;HPM_P2
2022/12/24 00:01:32;;;;;;;20.67;13.55;;;6.40;99.90;;;;;;5134207;27;20043;-63
2022/12/24 00:03:58;;;;;;;22.95;14.45;;;6.40;99.90;;;;;;5115342;27;20079;-63
2022/12/24 00:06:25;;;;;;;31.20;20.45;;;6.40;99.90;;;;;;5114635;27;20064;-63
2022/12/24 00:08:53;;;;;;;35.10;23.38;;;6.40;99.90;;;;;;5114928;27;20043;-63
2022/12/24 00:11:20;;;;;;;33.78;23.25;;;6.40;99.90;;;;;;5114806;27;20403;-63
2022/12/24 00:13:47;;;;;;;26.77;17.75;;;6.40;99.90;;;;;;5096704;28;20169;-63
2022/12/24 00:16:16;;;;;;;26.73;15.45;;;6.40;99.90;;;;;;5114654;27;20052;-63
2022/12/24 00:18:43;;;;;;;25.90;15.63;;;6.40;99.90;;;;;;5096531;27;20044;-63
2022/12/24 00:21:10;;;;;;;19.65;12.35;;;6.40;99.90;;;;;;5115275;27;20445;-63
2022/12/24 00:23:36;;;;;;;19.63;13.80;;;6.40;99.90;;;;;;5096152;28;20449;-63
2022/12/24 00:26:03;;;;;;;21.58;12.40;;;6.40;99.90;;;;;;5096778;27;20050;-63
2022/12/24 00:28:30;;;;;;;19.27;13.02;;;6.40;99.90;;;;;;5114679;27;20120;-63
2022/12/24 00:30:57;;;;;;;20.70;12.27;;;6.40;99.90;;;;;;5095673;28;20043;-63
2022/12/24 00:33:26;;;;;;;20.25;12.75;;;6.40;99.90;;;;;;5096483;27;20550;-62
2022/12/24 00:35:54;;;;;;;19.10;13.15;;;6.40;99.90;;;;;;5096582;28;20055;-63
2022/12/24 00:38:21;;;;;;;23.85;12.20;;;6.40;99.90;;;;;;5130927;27;20092;-61
2022/12/24 00:40:48;;;;;;;21.10;12.43;;;6.40;99.90;;;;;;5114771;27;20157;-62
2022/12/24 00:43:15;;;;;;;18.67;11.73;;;6.40;99.90;;;;;;5133997;27;20047;-62
2022/12/24 00:45:41;;;;;;;18.20;11.68;;;6.50;99.90;;;;;;5133179;27;20482;-62
2022/12/24 00:48:08;;;;;;;20.70;12.20;;;6.50;99.90;;;;;;5113891;27;20052;-63
2022/12/24 00:50:37;;;;;;;18.45;11.90;;;6.50;99.90;;;;;;5114273;27;20043;-63
2022/12/24 00:53:03;;;;;;;16.38;10.73;;;6.50;99.90;;;;;;5133851;27;20046;-63
2022/12/24 00:55:30;;;;;;;19.30;12.65;;;6.50;99.90;;;;;;5113269;27;20054;-63
2022/12/24 00:57:57;;;;;;;18.63;12.05;;;6.50;99.90;;;;;;5113717;27;20059;-63
2022/12/24 01:00:24;;;;;;;19.65;12.25;;;6.50;99.90;;;;;;5112975;27;20043;-62
2022/12/24 01:02:51;;;;;;;19.27;11.90;;;6.50;99.90;;;;;;5133456;27;20047;-61
2022/12/24 01:05:19;;;;;;;17.85;11.73;;;6.50;99.90;;;;;;5112986;27;20058;-62
2022/12/24 01:07:48;;;;;;;19.05;11.38;;;6.50;99.90;;;;;;5133441;27;20043;-62
2022/12/24 01:10:18;;;;;;;21.58;11.60;;;6.50;99.90;;;;;;5114566;27;20043;-63
2022/12/24 01:12:45;;;;;;;23.40;13.40;;;6.50;99.90;;;;;;5113104;27;20043;-64
2022/12/24 01:15:14;;;;;;;19.60;11.98;;;6.50;99.90;;;;;;5113918;27;20046;-61
2022/12/24 01:17:41;;;;;;;17.77;11.75;;;6.50;99.90;;;;;;5113975;27;20051;-62
2022/12/24 01:20:12;;;;;;;19.67;11.57;;;6.50;99.90;;;;;;5094822;27;20479;-61
2022/12/24 01:22:39;;;;;;;17.42;11.48;;;6.50;99.90;;;;;;5113332;27;20104;-62
2022/12/24 01:25:09;;;;;;;19.17;11.52;;;6.50;99.90;;;;;;5132986;27;20490;-61
2022/12/24 01:27:36;;;;;;;18.52;11.55;;;6.60;99.90;;;;;;5112987;27;20055;-63
2022/12/24 01:30:03;;;;;;;18.70;12.18;;;6.60;99.90;;;;;;5112566;27;20109;-62
2022/12/24 01:32:30;;;;;;;24.27;13.85;;;6.60;99.90;;;;;;5132148;27;20119;-62
2022/12/24 01:34:56;;;;;;;21.73;13.27;;;6.60;99.90;;;;;;5094553;28;20043;-62
2022/12/24 01:37:24;;;;;;;22.95;14.00;;;6.60;99.90;;;;;;5095252;27;20071;-62
2022/12/24 01:43:22;;;;;;;20.85;13.15;;;6.60;99.90;;;;;;5112338;28;20487;-62
2022/12/24 01:45:44;;;;;;;19.45;12.77;;;6.50;99.90;;;;;;5113484;28;20059;-63
2022/12/24 01:48:19;;;;;;;21.02;12.85;;;6.60;99.90;;;;;;5094198;28;20100;-63
2022/12/24 01:50:47;;;;;;;22.77;13.52;;;6.60;99.90;;;;;;5095070;27;20071;-62
2022/12/24 01:53:15;;;;;;;20.17;13.38;;;6.60;99.90;;;;;;5113524;27;20119;-63
2022/12/24 01:55:44;;;;;;;21.35;14.05;;;6.60;99.90;;;;;;5094304;28;20043;-63
2022/12/24 01:58:15;;;;;;;20.15;12.00;;;6.60;99.90;;;;;;5113084;27;20142;-61
2022/12/24 02:00:42;;;;;;;19.15;12.00;;;6.60;99.90;;;;;;5094898;27;20044;-61
2022/12/24 02:03:09;;;;;;;20.08;12.40;;;6.60;99.90;;;;;;5094273;28;20043;-62
2022/12/24 02:05:42;;;;;;;20.13;12.32;;;6.60;99.90;;;;;;5113297;27;20047;-62
2022/12/24 02:08:09;;;;;;;19.08;12.43;;;6.60;99.90;;;;;;5094233;28;20121;-63
2022/12/24 02:10:36;;;;;;;20.00;13.27;;;6.60;99.90;;;;;;5094765;28;20053;-62
2022/12/24 02:13:05;;;;;;;23.88;13.38;;;6.70;99.90;;;;;;5112187;28;20059;-63
2022/12/24 02:15:46;;;;;;;18.83;13.07;;;6.60;99.90;;;;;;5094163;28;20051;-62
2022/12/24 02:18:23;;;;;;;23.60;13.45;;;6.70;99.90;;;;;;5113023;28;20047;-63
2022/12/24 02:21:23;;;;;;;20.88;12.63;;;6.70;99.90;;;;;;5094556;28;20404;-62
2022/12/24 02:24:20;;;;;;;23.00;13.60;;;6.70;99.90;;;;;;5094004;28;20540;-62
2022/12/24 02:27:08;;;;;;;18.10;11.35;;;6.60;99.90;;;;;;5094604;28;20043;-62
2022/12/24 02:30:00;;;;;;;19.95;12.35;;;6.70;99.90;;;;;;5112143;28;20055;-62
2022/12/24 02:32:35;;;;;;;21.02;13.02;;;6.70;99.90;;;;;;5113001;28;20043;-63
2022/12/24 02:35:08;;;;;;;20.40;12.63;;;6.70;99.90;;;;;;5112933;28;20059;-61
2022/12/24 02:37:39;;;;;;;21.60;12.63;;;6.70;99.90;;;;;;5094035;28;20051;-62
2022/12/24 02:40:10;;;;;;;19.23;11.73;;;6.70;99.90;;;;;;5131025;28;20415;-62
2022/12/24 02:42:40;;;;;;;18.63;12.25;;;6.70;99.90;;;;;;5112129;28;20504;-64
2022/12/24 02:45:11;;;;;;;19.17;12.73;;;6.70;99.90;;;;;;5131403;28;20090;-63
2022/12/24 02:47:40;;;;;;;21.77;13.38;;;6.70;99.90;;;;;;5131689;28;20502;-62
2022/12/24 02:50:10;;;;;;;20.60;13.25;;;6.70;99.90;;;;;;5131344;28;20058;-62
2022/12/24 02:52:39;;;;;;;21.20;13.13;;;6.70;99.90;;;;;;5112407;28;20044;-63
2022/12/24 02:55:10;;;;;;;22.60;13.32;;;6.70;99.90;;;;;;5112624;28;20051;-63
2022/12/24 02:57:50;;;;;;;24.40;12.93;;;6.70;99.90;;;;;;5093608;28;20035;-63
2022/12/24 03:00:21;;;;;;;22.48;13.13;;;6.70;99.90;;;;;;5112817;28;20388;-63
2022/12/24 03:03:01;;;;;;;19.00;12.57;;;6.70;99.90;;;;;;5129554;28;20050;-63
2022/12/24 03:05:35;;;;;;;21.75;13.70;;;6.70;99.90;;;;;;5131255;28;20086;-63
2022/12/24 03:08:06;;;;;;;20.38;13.32;;;6.80;99.90;;;;;;5112086;28;20052;-63
2022/12/24 03:10:39;;;;;;;22.42;13.82;;;6.70;99.90;;;;;;5111505;28;20051;-62
2022/12/24 03:13:12;;;;;;;23.00;13.90;;;6.80;99.90;;;;;;5129096;28;20100;-62
2022/12/24 03:15:40;;;;;;;22.88;13.05;;;6.80;99.90;;;;;;5113061;28;20115;-63
2022/12/24 03:18:10;;;;;;;21.83;13.43;;;6.90;99.90;;;;;;5131673;28;20046;-63
2022/12/24 03:20:39;;;;;;;21.92;13.18;;;6.90;99.90;;;;;;5093819;28;20055;-63
2022/12/24 03:23:07;;;;;;;25.92;15.20;;;7.00;99.90;;;;;;5106803;28;20048;-63
2022/12/24 03:25:38;;;;;;;21.33;13.38;;;7.00;99.90;;;;;;5115223;27;20057;-62
2022/12/24 03:28:07;;;;;;;22.60;13.43;;;7.10;99.90;;;;;;5135355;27;20383;-62
2022/12/24 03:30:35;;;;;;;22.60;12.95;;;7.10;99.90;;;;;;5115182;27;20495;-62
2022/12/24 03:33:03;;;;;;;19.95;12.00;;;7.20;99.90;;;;;;5134706;27;20039;-62
2022/12/24 03:35:30;;;;;;;20.33;11.15;;;7.20;99.90;;;;;;5135272;27;20046;-62
2022/12/24 03:37:57;;;;;;;15.75;10.60;;;7.30;99.90;;;;;;5114863;27;20047;-63
2022/12/24 03:40:24;;;;;;;16.95;10.77;;;7.40;99.90;;;;;;5134206;27;20058;-62
2022/12/24 03:42:51;;;;;;;20.27;10.40;;;7.50;99.90;;;;;;5115099;27;20044;-62
2022/12/24 03:45:17;;;;;;;17.63;9.90;;;7.50;99.90;;;;;;5116571;27;20043;-62
2022/12/24 03:47:44;;;;;;;17.80;9.73;;;7.60;99.90;;;;;;5134601;27;20047;-63
2022/12/24 03:50:13;;;;;;;18.13;8.90;;;7.60;99.90;;;;;;5115653;27;20047;-63
2022/12/24 03:52:40;;;;;;;16.50;8.10;;;7.60;99.90;;;;;;5115589;27;20059;-63
2022/12/24 03:55:07;;;;;;;13.40;7.25;;;7.70;99.90;;;;;;5114829;27;20048;-62
2022/12/24 03:57:34;;;;;;;16.95;7.93;;;7.70;99.90;;;;;;5097178;27;20054;-62
2022/12/24 04:00:01;;;;;;;19.13;8.63;;;7.70;99.90;;;;;;5115541;27;20123;-63
2022/12/24 04:02:28;;;;;;;16.20;7.63;;;7.70;99.90;;;;;;5114973;27;20100;-62
2022/12/24 04:04:54;;;;;;;18.55;7.80;;;7.70;99.90;;;;;;5115349;27;20108;-62
2022/12/24 04:07:23;;;;;;;19.25;8.40;;;7.60;99.90;;;;;;5115499;27;20043;-63
2022/12/24 04:09:50;;;;;;;14.50;7.05;;;7.60;99.90;;;;;;5096129;28;20067;-62
2022/12/24 04:12:17;;;;;;;22.40;7.57;;;7.60;99.90;;;;;;5115425;27;20043;-63
2022/12/24 04:14:43;;;;;;;21.30;7.53;;;7.60;99.90;;;;;;5114553;28;20507;-62
2022/12/24 04:17:10;;;;;;;15.98;7.75;;;7.60;99.90;;;;;;5115211;27;20054;-62
2022/12/24 04:19:37;;;;;;;18.42;7.57;;;7.70;99.90;;;;;;5132202;27;20043;-62
2022/12/24 04:22:04;;;;;;;21.45;7.95;;;7.70;99.90;;;;;;5133752;27;20080;-63
2022/12/24 04:24:32;;;;;;;21.73;8.25;;;7.80;99.90;;;;;;5113947;27;20055;-62
2022/12/24 04:26:59;;;;;;;24.27;7.90;;;7.80;99.90;;;;;;5134398;27;20427;-63
2022/12/24 04:29:26;;;;;;;17.13;8.65;;;7.80;99.90;;;;;;5113873;27;20441;-62
2022/12/24 04:31:53;;;;;;;22.52;8.15;;;7.90;99.90;;;;;;5113211;27;20046;-62
2022/12/24 04:34:20;;;;;;;27.85;8.35;;;7.90;99.90;;;;;;5114632;27;20044;-63
2022/12/24 04:36:47;;;;;;;29.17;8.05;;;7.90;99.90;;;;;;5130393;27;20046;-62
2022/12/24 04:39:13;;;;;;;23.27;7.63;;;8.00;99.90;;;;;;5133758;27;20063;-63
2022/12/24 04:41:42;;;;;;;19.73;6.95;;;8.00;99.90;;;;;;5134299;27;20406;-63
2022/12/24 04:44:09;;;;;;;25.20;7.47;;;8.00;99.90;;;;;;5133445;27;20050;-63
2022/12/24 04:46:36;;;;;;;21.65;6.70;;;8.10;99.90;;;;;;5133736;27;20063;-63
2022/12/24 04:49:03;;;;;;;26.73;8.35;;;8.00;99.90;;;;;;5111824;28;20434;-63
2022/12/24 04:51:30;;;;;;;32.88;8.70;;;8.00;99.90;;;;;;5113708;27;20054;-62
2022/12/24 04:53:57;;;;;;;30.63;7.18;;;8.00;99.90;;;;;;5096273;28;20047;-62
2022/12/24 04:56:25;;;;;;;23.15;5.57;;;8.00;99.90;;;;;;5096078;28;20491;-62
2022/12/24 04:58:54;;;;;;;29.17;6.00;;;7.90;99.90;;;;;;5113710;27;20044;-63
2022/12/24 05:01:23;;;;;;;30.95;6.43;;;7.90;99.90;;;;;;5110486;27;20057;-63
2022/12/24 05:03:51;;;;;;;31.30;6.35;;;8.00;99.90;;;;;;5132941;27;20490;-63
2022/12/24 05:06:20;;;;;;;33.30;7.78;;;7.90;99.90;;;;;;5133524;27;20491;-63
2022/12/24 05:08:47;;;;;;;38.03;7.80;;;7.90;99.90;;;;;;5110694;27;20051;-63
2022/12/24 05:11:15;;;;;;;23.40;5.68;;;7.90;99.90;;;;;;5114140;27;20051;-62
2022/12/24 05:13:42;;;;;;;37.03;7.55;;;7.90;99.90;;;;;;5133525;27;20039;-63
2022/12/24 05:16:12;;;;;;;31.42;7.30;;;7.90;99.90;;;;;;5095639;27;20407;-63
2022/12/24 05:18:39;;;;;;;28.85;6.03;;;8.00;99.90;;;;;;5095121;27;20411;-63
2022/12/24 05:21:09;;;;;;;24.35;5.95;;;7.90;99.90;;;;;;5095684;28;20195;-62
2022/12/24 05:26:28;;;;;;;27.73;6.55;;;8.00;99.90;;;;;;5111785;28;20079;-62
2022/12/24 05:28:57;;;;;;;29.17;6.47;;;8.00;99.90;;;;;;5133032;27;20043;-63
2022/12/24 05:31:26;;;;;;;29.05;7.13;;;8.00;99.90;;;;;;5113522;27;20047;-63
2022/12/24 05:33:54;;;;;;;25.35;6.80;;;8.00;99.90;;;;;;5112815;27;20179;-63
2022/12/24 05:36:21;;;;;;;35.60;5.93;;;8.00;99.90;;;;;;5132790;27;20043;-62
2022/12/24 05:38:49;;;;;;;27.02;6.22;;;8.10;99.90;;;;;;5113320;27;20089;-63
2022/12/24 05:41:16;;;;;;;30.33;6.20;;;8.10;99.90;;;;;;5112907;27;20608;-62
2022/12/24 05:43:43;;;;;;;28.92;6.95;;;8.10;99.90;;;;;;5095025;28;20051;-63
2022/12/24 05:46:11;;;;;;;26.55;6.65;;;8.10;99.90;;;;;;5094551;28;20039;-62
2022/12/24 05:48:40;;;;;;;31.02;7.85;;;8.00;99.90;;;;;;5113191;27;20392;-64
2022/12/24 05:51:08;;;;;;;27.88;7.47;;;8.00;99.90;;;;;;5113319;27;20533;-61
2022/12/24 05:53:36;;;;;;;31.08;7.07;;;8.00;99.90;;;;;;5094364;27;20512;-62
2022/12/24 05:56:05;;;;;;;32.90;7.43;;;8.10;99.90;;;;;;5113189;27;20051;-62
2022/12/24 05:58:31;;;;;;;38.25;7.88;;;8.00;99.90;;;;;;5094957;28;20120;-63
2022/12/24 06:01:00;;;;;;;32.17;7.53;;;8.00;99.90;;;;;;5112905;28;20513;-61
2022/12/24 06:03:27;;;;;;;35.33;6.80;;;8.10;99.90;;;;;;5094905;28;20043;-62
2022/12/24 06:06:04;;;;;;;31.10;8.02;;;8.00;99.90;;;;;;5094985;28;20058;-64
2022/12/24 06:08:32;;;;;;;34.42;6.65;;;8.00;99.90;;;;;;5112328;28;20043;-64
2022/12/24 06:11:01;;;;;;;35.15;7.18;;;8.00;99.90;;;;;;5094698;28;20556;-65
2022/12/24 06:13:28;;;;;;;20.05;5.82;;;8.00;99.90;;;;;;5094446;28;20043;-64
2022/12/24 06:15:55;;;;;;;32.90;7.82;;;8.10;99.90;;;;;;5094001;28;20491;-63
2022/12/24 06:18:23;;;;;;;24.05;6.22;;;8.00;99.90;;;;;;5094544;28;20047;-64
2022/12/24 06:20:51;;;;;;;32.15;7.70;;;8.10;99.90;;;;;;5094698;28;20479;-63
2022/12/24 06:23:19;;;;;;;34.25;7.05;;;8.00;99.90;;;;;;5113250;27;20087;-63
2022/12/24 06:25:46;;;;;;;30.52;6.80;;;8.10;99.90;;;;;;5132191;27;20100;-63
2022/12/24 06:28:14;;;;;;;40.65;7.82;;;8.00;99.90;;;;;;5111686;28;20044;-63
2022/12/24 06:30:41;;;;;;;31.95;6.88;;;8.00;99.90;;;;;;5132331;28;20047;-62
2022/12/24 06:33:08;;;;;;;25.42;6.30;;;8.00;99.90;;;;;;5131992;28;20046;-63
2022/12/24 06:35:35;;;;;;;33.35;6.97;;;8.10;99.90;;;;;;5097183;28;20047;-63
2022/12/24 06:38:02;;;;;;;25.60;5.82;;;8.10;99.90;;;;;;5109859;28;20407;-61
2022/12/24 06:40:30;;;;;;;38.65;6.60;;;8.10;99.90;;;;;;5112255;28;20040;-63
2022/12/24 06:42:57;;;;;;;28.33;6.10;;;8.10;99.90;;;;;;5110390;28;20047;-63
2022/12/24 06:45:24;;;;;;;34.92;7.85;;;8.10;99.90;;;;;;5110381;28;20047;-62
2022/12/24 06:47:50;;;;;;;30.73;7.35;;;8.20;99.90;;;;;;5099358;28;20119;-62
2022/12/24 06:50:17;;;;;;;30.52;6.93;;;8.10;99.90;;;;;;5095491;28;20043;-63
2022/12/24 06:52:44;;;;;;;26.75;6.50;;;8.20;99.90;;;;;;5111424;28;20044;-63
2022/12/24 06:55:11;;;;;;;31.95;7.05;;;8.10;99.90;;;;;;5100047;28;20048;-63
2022/12/24 06:57:40;;;;;;;35.47;7.32;;;8.10;99.90;;;;;;5095887;28;20055;-63
2022/12/24 07:00:10;;;;;;;32.60;6.28;;;8.10;99.90;;;;;;5115204;27;20510;-61
2022/12/24 07:02:39;;;;;;;25.10;7.68;;;8.10;99.90;;;;;;5101355;27;20570;-62
2022/12/24 07:05:08;;;;;;;40.22;7.50;;;8.00;99.90;;;;;;5113794;27;20503;-63
2022/12/24 07:07:37;;;;;;;32.22;6.97;;;8.10;99.90;;;;;;5119677;27;20044;-62
2022/12/24 07:10:05;;;;;;;36.88;7.13;;;8.00;99.90;;;;;;5101241;28;20055;-62
2022/12/24 07:12:33;;;;;;;34.50;6.85;;;8.00;99.90;;;;;;5113851;27;20180;-64
2022/12/24 07:15:01;;;;;;;27.13;6.78;;;8.10;99.90;;;;;;5114547;28;20067;-63
2022/12/24 07:17:28;;;;;;;31.10;6.35;;;8.10;99.90;;;;;;5099049;28;20483;-64
2022/12/24 07:19:55;;;;;;;35.55;6.82;;;8.10;99.90;;;;;;5102299;27;20087;-63
2022/12/24 07:22:22;;;;;;;30.60;6.75;;;8.00;99.90;;;;;;5100011;28;20054;-62
2022/12/24 07:24:49;;;;;;;30.27;6.68;;;8.00;99.90;;;;;;5114276;27;20051;-63
2022/12/24 07:27:16;;;;;;;25.65;7.70;;;7.90;99.90;;;;;;5099720;27;20058;-61
2022/12/24 07:29:43;;;;;;;31.27;6.53;;;7.80;99.90;;;;;;5106235;27;20958;-63
2022/12/24 07:32:11;;;;;;;32.20;7.68;;;7.80;99.90;;;;;;5099067;28;20047;-62
2022/12/24 07:34:38;;;;;;;24.92;5.70;;;7.70;99.90;;;;;;5102463;28;20043;-61
2022/12/24 07:37:06;;;;;;;24.90;6.28;;;7.70;99.90;;;;;;5102571;27;20514;-62
2022/12/24 07:39:32;;;;;;;31.67;6.53;;;7.60;99.90;;;;;;5102515;27;20100;-62
2022/12/24 07:41:59;;;;;;;30.77;7.32;;;7.60;99.90;;;;;;5122443;27;20043;-62
2022/12/24 07:44:26;;;;;;;25.58;6.95;;;7.60;99.90;;;;;;5101758;28;20130;-62
2022/12/24 07:46:53;;;;;;;27.02;6.78;;;7.60;99.90;;;;;;5112865;27;20151;-61
2022/12/24 07:49:21;;;;;;;35.60;6.82;;;7.60;99.90;;;;;;5113885;27;20051;-62
2022/12/24 07:51:48;;;;;;;29.58;6.72;;;7.70;99.90;;;;;;5106408;27;20392;-63
2022/12/24 07:54:15;;;;;;;24.63;6.65;;;7.70;99.90;;;;;;5115681;27;20117;-64
2022/12/24 07:56:42;;;;;;;34.95;7.07;;;7.70;99.90;;;;;;5100247;27;20059;-63
2022/12/24 07:59:12;;;;;;;26.27;6.72;;;7.60;99.90;;;;;;5116529;27;20457;-63
2022/12/24 08:01:39;;;;;;;30.40;6.78;;;7.70;99.90;;;;;;5113506;27;20052;-63
2022/12/24 08:04:06;;;;;;;31.10;6.40;;;7.70;99.90;;;;;;5099489;28;20055;-63
2022/12/24 08:06:34;;;;;;;26.40;5.65;;;7.80;99.90;;;;;;5121075;27;20058;-63
2022/12/24 08:09:01;;;;;;;27.02;7.20;;;7.80;99.90;;;;;;5119318;27;20051;-63
2022/12/24 08:11:28;;;;;;;26.00;7.63;;;7.80;99.90;;;;;;5118462;27;20047;-63
2022/12/24 08:13:55;;;;;;;36.33;6.20;;;7.90;99.90;;;;;;5122317;27;20510;-63
2022/12/24 08:16:22;;;;;;;19.83;5.78;;;7.90;99.90;;;;;;5106161;27;20059;-62
2022/12/24 08:18:49;;;;;;;30.10;6.35;;;7.90;99.90;;;;;;5098280;28;20191;-63
2022/12/24 08:21:16;;;;;;;23.45;6.53;;;7.90;99.90;;;;;;5106462;27;20479;-64
2022/12/24 08:23:46;;;;;;;33.40;6.22;;;7.90;99.90;;;;;;5099860;28;20092;-63
2022/12/24 08:26:13;;;;;;;35.15;6.95;;;8.00;99.90;;;;;;5113173;27;20051;-63
2022/12/24 08:28:39;;;;;;;39.78;8.27;;;8.00;99.90;;;;;;5096988;27;20457;-62
2022/12/24 08:31:07;;;;;;;20.15;6.25;;;8.00;99.90;;;;;;5096785;28;20044;-63
2022/12/24 08:33:34;;;;;;;39.75;8.07;;;8.00;99.90;;;;;;5113855;28;20050;-63
2022/12/24 08:36:01;;;;;;;27.88;7.45;;;8.00;99.90;;;;;;5099048;27;20082;-62
2022/12/24 08:38:28;;;;;;;35.08;7.10;;;8.10;99.90;;;;;;5100754;28;20495;-64
2022/12/24 08:40:56;;;;;;;31.65;7.63;;;8.10;99.90;;;;;;5118434;27;20043;-64
2022/12/24 08:43:25;;;;;;;38.40;8.63;;;8.10;99.90;;;;;;5112130;28;20570;-62
2022/12/24 08:45:53;;;;;;;25.77;6.68;;;8.10;99.90;;;;;;5097767;28;20059;-63
2022/12/24 08:48:20;;;;;;;31.30;7.45;;;8.20;99.90;;;;;;5098449;28;20051;-64
2022/12/24 08:50:47;;;;;;;29.77;6.95;;;8.20;99.90;;;;;;5112827;27;20107;-63
2022/12/24 08:53:14;;;;;;;32.33;7.55;;;8.30;99.90;;;;;;5099438;27;20527;-64
2022/12/24 08:55:41;;;;;;;30.33;6.65;;;8.30;99.90;;;;;;5098098;27;20063;-63
2022/12/24 08:58:09;;;;;;;32.95;7.32;;;8.30;99.90;;;;;;5097181;28;20395;-63
2022/12/24 09:00:37;;;;;;;30.48;8.45;;;8.30;99.90;;;;;;5100180;27;20050;-63
2022/12/24 09:03:04;;;;;;;28.42;6.72;;;8.40;99.90;;;;;;5115917;27;20050;-63
2022/12/24 09:05:31;;;;;;;30.00;6.50;;;8.40;99.90;;;;;;5113661;28;20044;-63
2022/12/24 09:07:58;;;;;;;29.70;6.95;;;8.40;99.90;;;;;;5094681;28;20051;-64
2022/12/24 09:10:25;;;;;;;30.40;7.40;;;8.40;99.90;;;;;;5093321;27;20097;-63
2022/12/24 09:12:52;;;;;;;31.55;7.30;;;8.50;99.90;;;;;;5112778;28;20097;-65
2022/12/24 09:15:20;;;;;;;24.95;6.35;;;8.50;99.90;;;;;;5112008;28;20111;-63
2022/12/24 09:17:47;;;;;;;24.35;6.38;;;8.50;99.90;;;;;;5096120;28;20501;-63
2022/12/24 09:20:14;;;;;;;25.42;5.93;;;8.60;99.90;;;;;;5095156;28;20056;-62
2022/12/24 09:22:41;;;;;;;27.75;7.22;;;8.60;99.90;;;;;;5093798;28;20357;-63
2022/12/24 09:25:10;;;;;;;27.45;7.47;;;8.60;99.90;;;;;;5093136;28;20047;-62
2022/12/24 09:27:37;;;;;;;30.67;6.70;;;8.70;99.90;;;;;;5112409;27;20043;-63
2022/12/24 09:30:05;;;;;;;27.77;7.10;;;8.80;99.90;;;;;;5094722;28;20044;-64
2022/12/24 09:32:33;;;;;;;26.48;6.35;;;8.90;99.90;;;;;;5093669;27;20043;-62
2022/12/24 09:35:00;;;;;;;30.02;6.68;;;8.90;99.90;;;;;;5093392;28;20529;-62
2022/12/24 09:37:27;;;;;;;28.65;7.03;;;8.90;99.90;;;;;;5093552;27;20050;-62
2022/12/24 09:39:54;;;;;;;30.00;7.55;;;9.00;99.90;;;;;;5111574;27;20043;-63
2022/12/24 09:42:33;;;;;;;28.30;7.63;;;9.00;99.90;;;;;;5111934;28;20109;-62
2022/12/24 09:45:07;;;;;;;28.13;6.53;;;9.00;99.90;;;;;;5112647;28;20044;-63
2022/12/24 09:47:39;;;;;;;24.35;6.97;;;9.20;99.90;;;;;;5094484;28;20510;-63
2022/12/24 09:50:28;;;;;;;25.60;5.45;;;9.20;99.90;;;;;;5093734;28;20062;-62
2022/12/24 09:52:56;;;;;;;23.63;5.88;;;9.20;99.90;;;;;;5092988;28;20544;-63
2022/12/24 09:55:28;;;;;;;26.80;7.47;;;9.10;99.90;;;;;;5092962;28;20052;-63
2022/12/24 09:57:56;;;;;;;27.65;6.72;;;9.20;99.90;;;;;;5093203;28;20044;-63
2022/12/24 10:00:27;;;;;;;22.10;6.32;;;9.60;99.90;;;;;;5092710;28;20056;-63
2022/12/24 10:02:56;;;;;;;40.65;7.50;;;9.80;99.90;;;;;;5094334;28;20449;-62
2022/12/24 10:05:34;;;;;;;24.65;5.65;;;9.90;99.90;;;;;;5093189;28;20083;-62
2022/12/24 10:08:13;;;;;;;23.88;6.07;;;9.90;99.90;;;;;;5110813;27;20564;-63
2022/12/24 10:10:48;;;;;;;27.73;6.95;;;9.80;99.90;;;;;;5094139;28;20055;-63
2022/12/24 10:13:25;;;;;;;22.52;6.20;;;9.70;99.90;;;;;;5095584;28;20051;-62
2022/12/24 10:15:59;;;;;;;26.80;5.93;;;9.60;99.90;;;;;;5093136;28;20404;-62
2022/12/24 10:18:38;;;;;;;25.77;6.55;;;9.60;99.90;;;;;;5092846;28;20059;-63
2022/12/24 10:21:12;;;;;;;27.17;7.43;;;9.90;99.90;;;;;;5111724;28;20058;-63
2022/12/24 10:23:45;;;;;;;22.20;6.90;;;10.80;99.90;;;;;;5101375;28;20493;-62
2022/12/24 10:26:18;;;;;;;28.08;7.25;;;11.40;99.90;;;;;;5093099;28;20043;-62
2022/12/24 10:28:51;;;;;;;34.20;5.93;;;11.40;99.90;;;;;;5110496;28;20548;-63
2022/12/24 10:31:20;;;;;;;24.40;6.50;;;11.40;99.90;;;;;;5098772;28;20075;-63
2022/12/24 10:33:53;;;;;;;25.37;5.90;;;11.10;99.90;;;;;;5123096;27;20505;-63
2022/12/24 10:36:25;;;;;;;27.23;7.13;;;11.00;99.90;;;;;;5102189;28;20085;-63
2022/12/24 10:38:52;;;;;;;18.75;6.28;;;10.80;99.90;;;;;;5096901;28;20388;-63
2022/12/24 10:41:19;;;;;;;21.20;4.97;;;10.70;99.90;;;;;;5097104;27;20039;-62
2022/12/24 10:43:47;;;;;;;17.85;6.00;;;10.60;99.90;;;;;;5097181;28;21419;-62
2022/12/24 10:46:20;;;;;;;21.20;5.68;;;10.50;99.90;;;;;;5096766;27;20455;-63
2022/12/24 10:48:53;;;;;;;26.77;6.63;;;10.40;99.90;;;;;;5115069;28;20054;-62
2022/12/24 10:51:25;;;;;;;27.52;6.25;;;10.40;99.90;;;;;;5115459;28;20043;-63
2022/12/24 10:53:56;;;;;;;29.52;7.13;;;10.40;99.90;;;;;;5098954;27;20055;-62
2022/12/24 10:56:23;;;;;;;23.35;6.43;;;10.30;99.90;;;;;;5097511;28;20135;-63
2022/12/24 10:58:53;;;;;;;24.75;6.82;;;10.30;99.90;;;;;;5096345;28;20054;-63
2022/12/24 11:01:21;;;;;;;23.10;5.47;;;10.30;99.90;;;;;;5115178;27;20522;-63
2022/12/24 11:04:01;;;;;;;28.35;5.75;;;10.20;99.90;;;;;;5097480;28;20048;-62
2022/12/24 11:06:27;;;;;;;19.47;4.97;;;10.20;99.90;;;;;;5099008;28;20123;-63
2022/12/24 11:09:07;;;;;;;25.20;6.13;;;10.10;99.90;;;;;;5114315;27;20054;-62
2022/12/24 11:11:35;;;;;;;22.55;5.32;;;10.10;99.90;;;;;;5114693;27;20403;-64
2022/12/24 11:14:02;;;;;;;27.88;6.47;;;10.10;99.90;;;;;;5114953;28;20051;-64
2022/12/24 11:16:32;;;;;;;21.25;6.35;;;10.00;99.90;;;;;;5115642;28;20047;-64
2022/12/24 11:19:03;;;;;;;35.13;6.83;;;9.90;99.90;;;;;;5114190;27;20055;-62
2022/12/24 11:21:31;;;;;;;23.33;5.90;;;10.00;99.90;;;;;;5096631;28;20845;-63
2022/12/24 11:24:07;;;;;;;21.92;5.15;;;9.90;99.90;;;;;;5116122;27;20055;-63
2022/12/24 11:26:34;;;;;;;21.73;5.78;;;9.90;99.90;;;;;;5115851;28;20040;-63
2022/12/24 11:29:14;;;;;;;25.88;6.07;;;9.90;99.90;;;;;;5117134;27;20399;-63
2022/12/24 11:31:42;;;;;;;23.55;5.07;;;9.90;99.90;;;;;;5116729;27;20055;-63
2022/12/24 11:34:25;;;;;;;22.08;5.22;;;9.90;99.90;;;;;;5096774;28;20043;-63
2022/12/24 11:36:54;;;;;;;17.15;4.90;;;9.90;99.90;;;;;;5114106;28;20043;-63
2022/12/24 11:39:23;;;;;;;19.33;4.90;;;9.90;99.90;;;;;;5095052;27;20054;-63
2022/12/24 11:41:50;;;;;;;24.50;5.40;;;9.90;99.90;;;;;;5095797;28;20055;-62
2022/12/24 11:44:24;;;;;;;17.52;5.25;;;9.90;99.90;;;;;;5119422;27;20047;-64
2022/12/24 11:46:55;;;;;;;25.08;5.13;;;9.90;99.90;;;;;;5095094;27;20456;-63
2022/12/24 11:49:28;;;;;;;18.35;4.22;;;9.90;99.90;;;;;;5114959;27;20055;-63
2022/12/24 11:52:17;;;;;;;19.90;4.35;;;9.90;99.90;;;;;;5096549;28;20048;-63
2022/12/24 11:54:54;;;;;;;12.27;4.05;;;9.80;99.90;;;;;;5101420;27;20052;-64
2022/12/24 11:57:24;;;;;;;23.00;5.45;;;9.80;99.90;;;;;;5095575;28;20051;-64
2022/12/24 11:59:51;;;;;;;14.55;4.32;;;9.80;99.90;;;;;;5102841;27;20062;-63
2022/12/24 12:02:23;;;;;;;28.98;6.93;;;9.90;99.90;;;;;;5094724;28;20082;-63
2022/12/24 12:04:55;;;;;;;18.48;5.05;;;9.90;99.90;;;;;;5095823;27;20043;-63
2022/12/24 12:07:26;;;;;;;30.60;5.80;;;9.90;99.90;;;;;;5095847;28;20040;-63
2022/12/24 12:09:59;;;;;;;16.15;5.32;;;9.80;99.90;;;;;;5113420;28;20050;-64
2022/12/24 12:12:29;;;;;;;18.75;4.72;;;9.80;99.90;;;;;;5103511;28;20055;-63
2022/12/24 12:15:02;;;;;;;23.00;5.57;;;9.80;99.90;;;;;;5096309;28;20047;-63
2022/12/24 12:17:33;;;;;;;25.00;5.32;;;9.70;99.90;;;;;;5112553;28;20090;-63
2022/12/24 12:20:13;;;;;;;19.33;4.70;;;9.70;99.90;;;;;;5113660;27;20052;-64
2022/12/24 12:22:49;;;;;;;17.65;5.00;;;9.70;99.90;;;;;;5113064;28;20347;-63
2022/12/24 12:25:22;;;;;;;16.23;4.25;;;9.70;99.90;;;;;;5102201;28;20554;-64
2022/12/24 12:27:52;;;;;;;16.30;4.80;;;9.70;99.90;;;;;;5094367;28;20104;-63
2022/12/24 12:30:23;;;;;;;24.10;6.20;;;9.70;99.90;;;;;;5113622;27;20056;-62
2022/12/24 12:32:59;;;;;;;15.27;3.95;;;9.70;99.90;;;;;;5097965;28;20051;-64
2022/12/24 12:35:32;;;;;;;15.35;4.35;;;9.70;99.90;;;;;;5122377;27;20118;-64
2022/12/24 12:38:01;;;;;;;18.35;4.63;;;9.70;99.90;;;;;;5095499;28;20055;-63
2022/12/24 12:41:01;;;;;;;19.58;3.92;;;9.80;99.90;;;;;;5113239;28;20330;-62
2022/12/24 12:43:45;;;;;;;17.58;4.68;;;9.80;99.90;;;;;;5112894;27;20047;-63
2022/12/24 12:46:21;;;;;;;20.52;4.55;;;9.80;99.90;;;;;;5096248;28;20449;-64
2022/12/24 12:49:09;;;;;;;17.75;5.43;;;9.80;99.90;;;;;;5095801;27;20056;-65
2022/12/24 12:51:44;;;;;;;20.42;4.88;;;9.80;99.90;;;;;;5114691;27;20453;-63
2022/12/24 12:54:25;;;;;;;26.00;5.38;;;9.90;99.90;;;;;;5114575;27;20047;-64
2022/12/24 12:56:57;;;;;;;18.98;4.28;;;10.00;99.90;;;;;;5094761;28;20172;-63
2022/12/24 12:59:35;;;;;;;16.17;4.53;;;10.00;99.90;;;;;;5095872;27;20050;-62
2022/12/24 13:02:15;;;;;;;25.05;5.00;;;10.00;99.90;;;;;;5096158;28;20055;-63